createdAt,value
2022-12-01T00:01:37.842Z,4.41
2022-12-01T00:04:06.395Z,4.43
2022-12-01T00:06:34.731Z,4.38
2022-12-01T00:09:22.074Z,4.42
2022-12-01T00:11:50.599Z,4.35
2022-12-01T00:14:19.090Z,4.38
2022-12-01T00:16:47.642Z,4.37
2022-12-01T00:19:17.712Z,4.41
2022-12-01T00:21:47.010Z,4.39
2022-12-01T00:24:16.849Z,4.41
2022-12-01T00:26:45.304Z,4.42
2022-12-01T00:29:13.749Z,4.36
2022-12-01T00:31:42.528Z,4.32
2022-12-01T00:34:23.150Z,4.33
2022-12-01T00:36:51.900Z,4.29
2022-12-01T00:39:21.765Z,4.29
2022-12-01T00:41:50.641Z,4.30
2022-12-01T00:44:19.081Z,4.25
2022-12-01T00:46:47.562Z,4.17
2022-12-01T00:49:16.628Z,4.30
2022-12-01T00:51:45.131Z,4.25
2022-12-01T00:54:13.640Z,4.29
2022-12-01T00:56:43.462Z,4.29
2022-12-01T00:59:12.164Z,4.30
2022-12-01T01:01:40.983Z,4.36
2022-12-01T01:04:09.523Z,4.27
2022-12-01T01:06:38.508Z,4.27
2022-12-01T01:09:06.952Z,4.30
2022-12-01T01:11:35.376Z,4.25
2022-12-01T01:14:05.370Z,4.28
2022-12-01T01:16:34.334Z,4.25
2022-12-01T01:19:02.815Z,4.21
2022-12-01T01:21:31.245Z,4.16
2022-12-01T01:23:59.758Z,4.20
2022-12-01T01:26:30.711Z,4.24
2022-12-01T01:29:01.292Z,4.29
2022-12-01T01:31:32.245Z,4.25
2022-12-01T01:34:00.680Z,4.29
2022-12-01T01:36:29.250Z,4.30
2022-12-01T01:38:57.852Z,4.25
2022-12-01T01:41:26.237Z,4.30
2022-12-01T01:43:57.577Z,4.33
2022-12-01T01:46:28.171Z,4.37
2022-12-01T01:49:02.445Z,4.34
2022-12-01T01:51:36.290Z,4.36
2022-12-01T01:54:08.864Z,4.26
2022-12-01T01:56:38.359Z,4.22
2022-12-01T01:59:06.993Z,4.17
2022-12-01T02:01:35.437Z,4.17
2022-12-01T02:04:06.227Z,4.13
2022-12-01T02:06:34.959Z,4.15
2022-12-01T02:09:03.373Z,4.17
2022-12-01T02:11:49.734Z,4.09
2022-12-01T02:14:34.607Z,4.15
2022-12-01T02:17:13.422Z,4.19
2022-12-01T02:20:21.224Z,4.16
2022-12-01T02:23:03.679Z,4.07
2022-12-01T02:25:44.528Z,4.08
2022-12-01T02:28:43.226Z,4.12
2022-12-01T02:31:17.804Z,4.14
2022-12-01T02:33:54.921Z,4.16
2022-12-01T02:36:35.279Z,4.13
2022-12-01T02:39:08.823Z,4.15
2022-12-01T02:41:43.963Z,4.08
2022-12-01T02:44:17.956Z,4.07
2022-12-01T02:46:53.852Z,4.02
2022-12-01T02:49:27.459Z,4.12
2022-12-01T02:51:58.296Z,4.11
2022-12-01T02:54:30.911Z,4.12
2022-12-01T02:56:59.363Z,4.21
2022-12-01T02:59:27.864Z,4.07
2022-12-01T03:02:07.838Z,4.10
2022-12-01T03:04:47.270Z,4.13
2022-12-01T03:07:34.416Z,4.12
2022-12-01T03:10:10.413Z,4.03
2022-12-01T03:12:43.181Z,4.08
2022-12-01T03:15:20.254Z,4.10
2022-12-01T03:17:54.222Z,4.10
2022-12-01T03:20:29.831Z,4.04
2022-12-01T03:23:02.439Z,4.00
2022-12-01T03:25:32.496Z,4.05
2022-12-01T03:30:54.253Z,4.04
2022-12-01T03:33:28.040Z,4.11
2022-12-01T03:36:01.870Z,4.12
2022-12-01T03:38:31.956Z,4.03
2022-12-01T03:41:04.885Z,4.09
2022-12-01T03:43:39.330Z,3.96
2022-12-01T03:46:13.270Z,3.96
2022-12-01T03:48:43.536Z,4.04
2022-12-01T03:51:18.997Z,4.02
2022-12-01T03:53:54.177Z,3.94
2022-12-01T03:56:26.110Z,3.99
2022-12-01T03:58:58.237Z,3.93
2022-12-01T04:01:32.598Z,3.99
2022-12-01T04:04:08.375Z,3.93
2022-12-01T04:06:37.414Z,3.92
2022-12-01T04:09:06.004Z,4.00
2022-12-01T04:11:52.504Z,4.02
2022-12-01T04:14:21.104Z,4.01
2022-12-01T04:16:49.590Z,4.06
2022-12-01T04:19:19.586Z,4.19
2022-12-01T04:21:47.983Z,4.13
2022-12-01T04:24:16.503Z,4.02
2022-12-01T04:26:46.032Z,4.04
2022-12-01T04:29:15.154Z,4.02
2022-12-01T04:31:43.612Z,4.00
2022-12-01T04:34:12.023Z,4.09
2022-12-01T04:36:41.798Z,4.10
2022-12-01T04:39:10.306Z,3.98
2022-12-01T04:41:38.746Z,3.98
2022-12-01T04:44:07.109Z,3.88
2022-12-01T04:46:35.741Z,3.97
2022-12-01T04:49:05.153Z,3.94
2022-12-01T04:51:33.631Z,3.85
2022-12-01T04:54:05.756Z,3.86
2022-12-01T04:56:34.265Z,3.92
2022-12-01T04:59:02.698Z,3.95
2022-12-01T05:01:31.370Z,3.98
2022-12-01T05:03:59.811Z,4.02
2022-12-01T05:06:29.613Z,4.04
2022-12-01T05:09:01.404Z,4.03
2022-12-01T05:11:32.185Z,4.02
2022-12-01T05:14:01.036Z,3.95
2022-12-01T05:16:32.276Z,3.94
2022-12-01T05:19:19.674Z,4.00
2022-12-01T05:21:49.147Z,3.95
2022-12-01T05:24:18.892Z,3.94
2022-12-01T05:26:48.684Z,3.88
2022-12-01T05:29:17.224Z,3.87
2022-12-01T05:31:46.750Z,3.91
2022-12-01T05:34:15.329Z,3.93
2022-12-01T05:36:43.704Z,3.98
2022-12-01T05:39:12.069Z,3.96
2022-12-01T05:41:40.411Z,3.88
2022-12-01T05:44:10.129Z,3.89
2022-12-01T05:46:38.741Z,3.79
2022-12-01T05:49:07.459Z,3.86
2022-12-01T05:51:35.929Z,3.85
2022-12-01T05:54:04.774Z,3.88
2022-12-01T05:56:33.267Z,3.88
2022-12-01T05:59:01.687Z,3.95
2022-12-01T06:01:31.488Z,3.95
2022-12-01T06:04:00.053Z,3.94
2022-12-01T06:06:28.606Z,3.95
2022-12-01T06:08:56.961Z,3.98
2022-12-01T06:11:25.337Z,4.02
2022-12-01T06:13:53.692Z,3.85
2022-12-01T06:16:22.032Z,3.89
2022-12-01T06:18:51.928Z,3.90
2022-12-01T06:21:20.300Z,3.91
2022-12-01T06:23:48.671Z,3.95
2022-12-01T06:26:19.182Z,3.98
2022-12-01T06:28:47.561Z,3.86
2022-12-01T06:31:15.966Z,3.89
2022-12-01T06:33:44.334Z,3.85
2022-12-01T06:36:14.603Z,3.92
2022-12-01T06:38:42.979Z,3.93
2022-12-01T06:41:11.304Z,4.00
2022-12-01T06:43:39.631Z,3.97
2022-12-01T06:46:08.049Z,3.99
2022-12-01T06:48:36.645Z,3.98
2022-12-01T06:51:05.131Z,3.96
2022-12-01T06:53:34.912Z,4.01
2022-12-01T06:56:05.817Z,4.05
2022-12-01T06:58:35.042Z,4.02
2022-12-01T07:01:09.389Z,3.99
2022-12-01T07:03:38.299Z,3.99
2022-12-01T07:06:06.989Z,3.84
2022-12-01T07:08:36.841Z,3.92
2022-12-01T07:11:07.356Z,3.96
2022-12-01T07:13:36.155Z,3.96
2022-12-01T07:16:05.778Z,3.89
2022-12-01T07:18:35.172Z,3.94
2022-12-01T07:21:06.041Z,3.97
2022-12-01T07:23:36.114Z,3.88
2022-12-01T07:26:09.453Z,3.91
2022-12-01T07:28:37.887Z,3.88
2022-12-01T07:31:09.494Z,3.93
2022-12-01T07:33:38.134Z,3.97
2022-12-01T07:36:08.249Z,3.95
2022-12-01T07:38:38.453Z,3.96
2022-12-01T07:41:08.697Z,3.85
2022-12-01T07:43:37.520Z,3.95
2022-12-01T07:46:08.554Z,3.90
2022-12-01T07:48:38.254Z,3.95
2022-12-01T07:51:07.720Z,3.91
2022-12-01T07:53:36.185Z,3.90
2022-12-01T07:56:08.970Z,3.82
2022-12-01T07:58:38.327Z,3.83
2022-12-01T08:01:09.626Z,3.88
2022-12-01T08:03:38.422Z,3.92
2022-12-01T08:06:07.810Z,3.93
2022-12-01T08:08:37.575Z,3.96
2022-12-01T08:11:10.708Z,3.90
2022-12-01T08:13:39.817Z,3.92
2022-12-01T08:16:11.414Z,4.07
2022-12-01T08:18:41.402Z,3.96
2022-12-01T08:21:11.670Z,3.96
2022-12-01T08:23:40.236Z,4.00
2022-12-01T08:26:13.879Z,4.06
2022-12-01T08:28:43.022Z,4.06
2022-12-01T08:31:13.618Z,4.03
2022-12-01T08:33:42.155Z,4.06
2022-12-01T08:36:10.837Z,4.11
2022-12-01T08:38:39.436Z,4.14
2022-12-01T08:41:10.742Z,4.20
2022-12-01T08:46:30.020Z,4.23
2022-12-01T08:48:58.616Z,4.13
2022-12-01T08:51:27.800Z,4.17
2022-12-01T08:53:57.849Z,4.18
2022-12-01T08:56:30.249Z,4.13
2022-12-01T08:58:59.015Z,4.13
2022-12-01T09:01:28.263Z,4.23
2022-12-01T09:04:06.623Z,4.15
2022-12-01T09:06:39.335Z,4.17
2022-12-01T09:09:08.484Z,4.11
2022-12-01T09:11:38.477Z,4.20
2022-12-01T09:14:06.931Z,4.23
2022-12-01T09:16:35.353Z,4.24
2022-12-01T09:19:04.594Z,4.24
2022-12-01T09:21:35.085Z,4.21
2022-12-01T09:24:04.367Z,4.15
2022-12-01T09:26:33.626Z,4.20
2022-12-01T09:29:07.258Z,4.21
2022-12-01T09:31:37.412Z,4.23
2022-12-01T09:34:08.310Z,4.34
2022-12-01T09:36:38.259Z,4.39
2022-12-01T09:39:07.948Z,4.47
2022-12-01T09:41:38.779Z,4.46
2022-12-01T09:44:17.122Z,4.47
2022-12-01T09:46:49.446Z,4.47
2022-12-01T09:49:22.774Z,4.56
2022-12-01T09:51:52.043Z,4.59
2022-12-01T09:54:20.570Z,4.66
2022-12-01T09:56:53.307Z,4.59
2022-12-01T09:59:25.328Z,4.53
2022-12-01T10:01:56.820Z,4.58
2022-12-01T10:04:30.953Z,4.58
2022-12-01T10:07:02.921Z,4.69
2022-12-01T10:09:37.485Z,4.65
2022-12-01T10:12:14.324Z,4.55
2022-12-01T10:14:45.639Z,4.52
2022-12-01T10:17:26.321Z,4.56
2022-12-01T10:20:04.017Z,4.56
2022-12-01T10:22:50.532Z,4.56
2022-12-01T10:25:23.117Z,4.60
2022-12-01T10:28:07.770Z,4.55
2022-12-01T10:30:48.217Z,4.64
2022-12-01T10:33:26.123Z,4.61
2022-12-01T10:35:55.683Z,4.53
2022-12-01T10:38:29.409Z,4.53
2022-12-01T10:41:00.877Z,4.56
2022-12-01T10:43:35.202Z,4.51
2022-12-01T10:46:17.095Z,4.59
2022-12-01T10:48:55.052Z,4.66
2022-12-01T10:51:24.141Z,4.55
2022-12-01T10:53:59.953Z,4.63
2022-12-01T10:56:28.976Z,4.61
2022-12-01T10:59:00.728Z,4.59
2022-12-01T11:01:35.477Z,4.58
2022-12-01T11:04:08.087Z,4.58
2022-12-01T11:06:37.115Z,4.59
2022-12-01T11:09:08.310Z,4.54
2022-12-01T11:11:39.789Z,4.54
2022-12-01T11:14:19.498Z,4.57
2022-12-01T11:16:51.851Z,4.52
2022-12-01T11:19:30.918Z,4.42
2022-12-01T11:22:00.808Z,4.48
2022-12-01T11:24:40.472Z,4.38
2022-12-01T11:27:16.847Z,4.39
2022-12-01T11:29:48.067Z,4.49
2022-12-01T11:32:23.677Z,4.51
2022-12-01T11:34:57.730Z,4.44
2022-12-01T11:37:32.624Z,4.50
2022-12-01T11:40:17.718Z,4.44
2022-12-01T11:42:50.182Z,4.47
2022-12-01T11:45:29.089Z,4.39
2022-12-01T11:48:05.886Z,4.36
2022-12-01T11:50:36.389Z,4.38
2022-12-01T11:53:07.454Z,4.32
2022-12-01T11:55:36.076Z,4.34
2022-12-01T11:58:05.147Z,4.40
2022-12-01T12:00:46.679Z,4.45
2022-12-01T12:03:30.387Z,4.48
2022-12-01T12:09:43.431Z,4.55
2022-12-01T12:12:25.768Z,4.54
2022-12-01T12:15:06.415Z,4.51
2022-12-01T12:17:50.439Z,4.43
2022-12-01T12:20:31.703Z,4.41
2022-12-01T12:23:16.288Z,4.40
2022-12-01T12:25:57.857Z,4.23
2022-12-01T12:28:39.254Z,4.39
2022-12-01T12:31:30.266Z,4.41
2022-12-01T12:34:27.166Z,4.40
2022-12-01T12:37:07.830Z,4.33
2022-12-01T12:39:51.455Z,4.30
2022-12-01T12:42:29.778Z,4.27
2022-12-01T12:45:06.246Z,4.28
2022-12-01T12:47:52.910Z,4.37
2022-12-01T12:50:31.250Z,4.47
2022-12-01T12:53:05.672Z,4.45
2022-12-01T12:55:38.353Z,4.48
2022-12-01T12:58:13.713Z,4.47
2022-12-01T13:00:47.575Z,4.52
2022-12-01T13:03:20.815Z,4.54
2022-12-01T13:05:53.570Z,4.87
2022-12-01T13:08:26.994Z,4.73
2022-12-01T13:11:00.337Z,4.68
2022-12-01T13:13:33.192Z,4.54
2022-12-01T13:16:04.347Z,4.43
2022-12-01T13:18:40.213Z,4.48
2022-12-01T13:21:14.186Z,4.49
2022-12-01T13:23:44.972Z,4.34
2022-12-01T13:26:16.433Z,4.41
2022-12-01T13:28:48.595Z,4.42
2022-12-01T13:31:19.074Z,4.44
2022-12-01T13:33:56.784Z,4.47
2022-12-01T13:39:20.548Z,4.54
2022-12-01T13:41:59.985Z,4.57
2022-12-01T13:44:32.357Z,4.62
2022-12-01T13:47:04.824Z,4.62
2022-12-01T13:49:41.865Z,4.67
2022-12-01T13:52:29.512Z,4.58
2022-12-01T13:55:24.122Z,4.61
2022-12-01T13:58:25.134Z,4.49
2022-12-01T14:00:54.025Z,4.34
2022-12-01T14:03:41.740Z,4.39
2022-12-01T14:06:25.904Z,4.41
2022-12-01T14:08:59.458Z,4.37
2022-12-01T14:11:30.779Z,4.30
2022-12-01T14:14:01.901Z,4.36
2022-12-01T14:16:48.786Z,4.37
2022-12-01T14:19:31.072Z,4.31
2022-12-01T14:22:00.958Z,4.34
2022-12-01T14:24:35.247Z,4.36
2022-12-01T14:27:06.457Z,4.39
2022-12-01T14:29:36.001Z,4.40
2022-12-01T14:32:24.243Z,4.37
2022-12-01T14:35:06.308Z,4.40
2022-12-01T14:37:40.404Z,4.30
2022-12-01T14:40:19.339Z,4.23
2022-12-01T14:43:12.345Z,4.34
2022-12-01T14:45:46.417Z,4.42
2022-12-01T14:48:18.303Z,4.37
2022-12-01T14:50:51.210Z,4.37
2022-12-01T14:53:25.829Z,4.33
2022-12-01T14:55:57.710Z,4.37
2022-12-01T14:58:29.509Z,4.43
2022-12-01T15:01:03.303Z,4.40
2022-12-01T15:03:36.492Z,4.37
2022-12-01T15:06:05.372Z,4.33
2022-12-01T15:08:53.319Z,4.30
2022-12-01T15:11:27.055Z,4.37
2022-12-01T15:13:58.566Z,4.27
2022-12-01T15:16:30.160Z,4.32
2022-12-01T15:18:59.152Z,4.25
2022-12-01T15:21:30.300Z,4.30
2022-12-01T15:24:00.743Z,4.30
2022-12-01T15:26:32.646Z,4.28
2022-12-01T15:29:16.352Z,4.25
2022-12-01T15:31:47.519Z,4.19
2022-12-01T15:34:18.261Z,4.17
2022-12-01T15:36:48.184Z,4.16
2022-12-01T15:39:18.478Z,4.07
2022-12-01T15:41:48.962Z,4.08
2022-12-01T15:44:26.692Z,4.09
2022-12-01T15:46:55.245Z,4.19
2022-12-01T15:49:30.044Z,4.18
2022-12-01T15:52:07.628Z,4.15
2022-12-01T15:54:38.098Z,4.15
2022-12-01T15:57:07.713Z,4.15
2022-12-01T15:59:41.357Z,4.12
2022-12-01T16:02:25.631Z,4.10
2022-12-01T16:05:02.771Z,4.17
2022-12-01T16:08:11.702Z,4.22
2022-12-01T16:10:31.311Z,4.25
2022-12-01T16:13:39.652Z,4.21
2022-12-01T16:16:31.484Z,4.06
2022-12-01T16:19:02.209Z,4.12
2022-12-01T16:21:34.510Z,4.03
2022-12-01T16:24:04.748Z,4.08
2022-12-01T16:26:34.671Z,4.13
2022-12-01T16:29:03.177Z,4.09
2022-12-01T16:31:33.193Z,4.03
2022-12-01T16:34:13.840Z,4.00
2022-12-01T16:36:51.689Z,3.94
2022-12-01T16:39:20.096Z,3.87
2022-12-01T16:41:48.754Z,3.96
2022-12-01T16:44:28.180Z,3.90
2022-12-01T16:46:58.644Z,3.91
2022-12-01T16:49:27.188Z,3.90
2022-12-01T16:51:57.281Z,3.93
2022-12-01T16:54:26.475Z,4.02
2022-12-01T16:56:54.923Z,3.96
2022-12-01T16:59:23.642Z,3.95
2022-12-01T17:01:52.284Z,3.99
2022-12-01T17:04:22.206Z,4.09
2022-12-01T17:06:50.740Z,4.12
2022-12-01T17:09:19.364Z,4.01
2022-12-01T17:11:47.900Z,4.00
2022-12-01T17:14:16.495Z,4.00
2022-12-01T17:16:44.924Z,3.94
2022-12-01T17:19:13.347Z,3.90
2022-12-01T17:21:43.492Z,3.96
2022-12-01T17:24:16.147Z,3.93
2022-12-01T17:26:47.351Z,3.88
2022-12-01T17:29:15.736Z,3.95
2022-12-01T17:31:44.302Z,3.90
2022-12-01T17:34:12.751Z,3.90
2022-12-01T17:36:41.592Z,3.90
2022-12-01T17:39:11.459Z,3.85
2022-12-01T17:41:42.036Z,3.90
2022-12-01T17:44:10.669Z,3.94
2022-12-01T17:46:41.497Z,3.86
2022-12-01T17:49:10.578Z,3.85
2022-12-01T17:51:39.212Z,3.82
2022-12-01T17:54:07.959Z,4.02
2022-12-01T17:56:37.850Z,3.86
2022-12-01T17:59:06.390Z,3.96
2022-12-01T18:01:35.229Z,4.00
2022-12-01T18:04:05.052Z,4.02
2022-12-01T18:06:33.429Z,3.95
2022-12-01T18:09:01.995Z,3.91
2022-12-01T18:11:30.499Z,3.94
2022-12-01T18:14:01.724Z,3.97
2022-12-01T18:16:32.894Z,3.89
2022-12-01T18:19:03.077Z,3.88
2022-12-01T18:21:31.664Z,3.92
2022-12-01T18:24:02.788Z,3.90
2022-12-01T18:26:52.401Z,3.86
2022-12-01T18:29:38.295Z,3.79
2022-12-01T18:32:11.651Z,3.87
2022-12-01T18:34:42.079Z,3.87
2022-12-01T18:37:10.512Z,3.85
2022-12-01T18:39:38.960Z,3.82
2022-12-01T18:42:07.474Z,3.77
2022-12-01T18:44:43.075Z,3.74
2022-12-01T18:47:11.593Z,3.86
2022-12-01T18:49:40.062Z,3.92
2022-12-01T18:52:08.442Z,3.88
2022-12-01T18:54:37.246Z,3.82
2022-12-01T18:57:05.682Z,3.83
2022-12-01T18:59:34.076Z,3.84
2022-12-01T19:02:04.129Z,3.80
2022-12-01T19:04:32.505Z,3.83
2022-12-01T19:07:00.915Z,3.78
2022-12-01T19:09:30.069Z,3.80
2022-12-01T19:12:00.587Z,3.69
2022-12-01T19:14:29.635Z,3.79
2022-12-01T19:16:58.259Z,3.75
2022-12-01T19:19:30.918Z,3.78
2022-12-01T19:22:02.763Z,3.81
2022-12-01T19:24:31.610Z,3.81
2022-12-01T19:27:00.156Z,3.80
2022-12-01T19:29:28.577Z,3.75
2022-12-01T19:31:57.305Z,3.77
2022-12-01T19:34:25.859Z,3.68
2022-12-01T19:36:56.721Z,3.62
2022-12-01T19:39:25.216Z,3.63
2022-12-01T19:41:54.292Z,3.64
2022-12-01T19:44:22.747Z,3.64
2022-12-01T19:46:51.164Z,3.55
2022-12-01T19:49:19.622Z,3.59
2022-12-01T19:51:48.126Z,3.62
2022-12-01T19:54:20.427Z,3.54
2022-12-01T19:56:48.965Z,3.57
2022-12-01T19:59:17.640Z,3.54
2022-12-01T20:01:46.889Z,3.56
2022-12-01T20:04:15.826Z,3.58
2022-12-01T20:06:45.927Z,3.59
2022-12-01T20:09:14.511Z,3.62
2022-12-01T20:11:44.411Z,3.60
2022-12-01T20:14:13.892Z,3.63
2022-12-01T20:16:42.464Z,3.59
2022-12-01T20:19:12.809Z,3.65
2022-12-01T20:21:43.277Z,3.72
2022-12-01T20:24:13.671Z,3.63
2022-12-01T20:26:45.366Z,3.62
2022-12-01T20:29:16.228Z,3.57
2022-12-01T20:31:45.562Z,3.48
2022-12-01T20:34:16.809Z,3.43
2022-12-01T20:36:45.428Z,3.51
2022-12-01T20:39:14.702Z,3.56
2022-12-01T20:41:45.672Z,3.58
2022-12-01T20:44:15.252Z,3.60
2022-12-01T20:46:45.651Z,3.65
2022-12-01T20:49:15.297Z,3.53
2022-12-01T20:51:43.790Z,3.58
2022-12-01T20:54:30.592Z,3.59
2022-12-01T20:57:00.798Z,3.49
2022-12-01T20:59:29.951Z,3.54
2022-12-01T21:01:58.554Z,3.48
2022-12-01T21:04:27.216Z,3.57
2022-12-01T21:06:57.918Z,3.57
2022-12-01T21:09:27.662Z,3.55
2022-12-01T21:12:17.054Z,3.56
2022-12-01T21:15:01.240Z,3.53
2022-12-01T21:17:35.309Z,3.47
2022-12-01T21:20:11.625Z,3.49
2022-12-01T21:22:40.184Z,3.54
2022-12-01T21:25:15.391Z,3.50
2022-12-01T21:27:43.973Z,3.50
2022-12-01T21:30:19.449Z,3.47
2022-12-01T21:32:48.636Z,3.39
2022-12-01T21:35:20.367Z,3.48
2022-12-01T21:37:50.189Z,3.47
2022-12-01T21:40:21.933Z,3.43
2022-12-01T21:42:51.702Z,3.41
2022-12-01T21:45:26.976Z,3.39
2022-12-01T21:48:01.318Z,3.41
2022-12-01T21:50:29.876Z,3.46
2022-12-01T21:52:58.976Z,3.47
2022-12-01T21:55:36.098Z,3.30
2022-12-01T21:58:25.498Z,3.36
2022-12-01T22:00:57.008Z,3.39
2022-12-01T22:03:33.758Z,3.36
2022-12-01T22:06:28.650Z,3.32
2022-12-01T22:09:00.761Z,3.35
2022-12-01T22:11:31.036Z,3.29
2022-12-01T22:14:05.737Z,3.22
2022-12-01T22:16:37.760Z,3.25
2022-12-01T22:19:23.933Z,3.17
2022-12-01T22:21:53.949Z,3.17
2022-12-01T22:24:25.020Z,3.06
2022-12-01T22:27:12.753Z,3.01
2022-12-01T22:29:44.268Z,2.98
2022-12-01T22:32:37.245Z,3.02
2022-12-01T22:35:30.645Z,3.11
2022-12-01T22:38:21.192Z,3.12
2022-12-01T22:40:56.586Z,3.13
2022-12-01T22:43:30.775Z,3.08
2022-12-01T22:46:13.039Z,3.13
2022-12-01T22:48:44.586Z,3.13
2022-12-01T22:51:24.761Z,3.08
2022-12-01T22:53:57.842Z,3.07
2022-12-01T22:56:31.024Z,3.04
2022-12-01T22:58:59.608Z,2.97
2022-12-01T23:01:30.032Z,2.97
2022-12-01T23:04:20.258Z,2.92
2022-12-01T23:07:09.638Z,2.97
2022-12-01T23:09:41.579Z,2.97
2022-12-01T23:12:26.460Z,2.93
2022-12-01T23:14:59.630Z,2.94
2022-12-01T23:17:30.934Z,2.88
2022-12-01T23:20:26.364Z,2.82
2022-12-01T23:22:56.033Z,2.78
2022-12-01T23:25:27.302Z,2.72
2022-12-01T23:27:59.861Z,2.68
2022-12-01T23:30:28.537Z,2.77
2022-12-01T23:33:10.616Z,2.78
2022-12-01T23:35:45.180Z,2.62
2022-12-01T23:38:17.600Z,2.52
2022-12-01T23:40:46.963Z,2.62
2022-12-01T23:43:20.462Z,2.68
2022-12-01T23:45:52.154Z,2.68
2022-12-01T23:48:26.801Z,2.63
2022-12-01T23:50:56.898Z,2.47
2022-12-01T23:53:29.220Z,2.55
2022-12-01T23:56:01.749Z,2.48
2022-12-01T23:58:30.486Z,2.55
